sensor_id;sensor_type;location;lat;lon;timestamp;pressure;altitude;pressure_sealevel;temperature;humidity
72959;BME280;60008;50.826;6.896;2023-03-25T00:00:10;99879.00;;;9.03;100.00
72959;BME280;60008;50.826;6.896;2023-03-25T00:03:01;99881.00;;;9.01;100.00
72959;BME280;60008;50.826;6.896;2023-03-25T00:05:46;99881.53;;;8.96;100.00
72959;BME280;60008;50.826;6.896;2023-03-25T00:08:31;99892.13;;;8.88;100.00
72959;BME280;60008;50.826;6.896;2023-03-25T00:11:16;99887.69;;;8.88;100.00
72959;BME280;60008;50.826;6.896;2023-03-25T00:14:01;99891.63;;;8.92;100.00
72959;BME280;60008;50.826;6.896;2023-03-25T00:16:46;99896.25;;;8.90;100.00
72959;BME280;60008;50.826;6.896;2023-03-25T00:19:33;99897.72;;;8.93;100.00
72959;BME280;60008;50.826;6.896;2023-03-25T00:22:19;99886.19;;;8.94;100.00
72959;BME280;60008;50.826;6.896;2023-03-25T00:25:05;99890.97;;;8.90;100.00
72959;BME280;60008;50.826;6.896;2023-03-25T00:27:50;99887.13;;;9.01;100.00
72959;BME280;60008;50.826;6.896;2023-03-25T00:30:37;99888.78;;;9.02;100.00
72959;BME280;60008;50.826;6.896;2023-03-25T00:33:22;99898.69;;;9.00;100.00
72959;BME280;60008;50.826;6.896;2023-03-25T00:36:07;99901.31;;;9.00;100.00
72959;BME280;60008;50.826;6.896;2023-03-25T00:38:53;99896.91;;;8.92;100.00
72959;BME280;60008;50.826;6.896;2023-03-25T00:41:38;99897.50;;;9.03;100.00
72959;BME280;60008;50.826;6.896;2023-03-25T00:44:25;99885.28;;;9.10;100.00
72959;BME280;60008;50.826;6.896;2023-03-25T00:47:10;99889.75;;;9.09;100.00
72959;BME280;60008;50.826;6.896;2023-03-25T00:50:00;99888.91;;;9.09;100.00
72959;BME280;60008;50.826;6.896;2023-03-25T00:52:48;99888.88;;;9.17;100.00
72959;BME280;60008;50.826;6.896;2023-03-25T00:55:33;99881.44;;;9.20;100.00
72959;BME280;60008;50.826;6.896;2023-03-25T00:58:18;99883.78;;;9.15;100.00
72959;BME280;60008;50.826;6.896;2023-03-25T01:01:08;99886.38;;;9.23;100.00
72959;BME280;60008;50.826;6.896;2023-03-25T01:03:55;99888.50;;;9.28;100.00
72959;BME280;60008;50.826;6.896;2023-03-25T01:06:44;99888.72;;;9.18;100.00
72959;BME280;60008;50.826;6.896;2023-03-25T01:09:29;99880.59;;;9.20;100.00
72959;BME280;60008;50.826;6.896;2023-03-25T01:12:15;99886.06;;;9.18;100.00
72959;BME280;60008;50.826;6.896;2023-03-25T01:15:03;99876.63;;;9.24;100.00
72959;BME280;60008;50.826;6.896;2023-03-25T01:17:48;99878.25;;;9.25;100.00
72959;BME280;60008;50.826;6.896;2023-03-25T01:20:33;99868.84;;;9.22;100.00
72959;BME280;60008;50.826;6.896;2023-03-25T01:23:17;99867.88;;;9.23;100.00
72959;BME280;60008;50.826;6.896;2023-03-25T01:26:02;99873.97;;;9.24;100.00
72959;BME280;60008;50.826;6.896;2023-03-25T01:28:48;99867.81;;;9.31;100.00
72959;BME280;60008;50.826;6.896;2023-03-25T01:31:33;99864.53;;;9.29;100.00
72959;BME280;60008;50.826;6.896;2023-03-25T01:34:18;99862.03;;;9.28;100.00
72959;BME280;60008;50.826;6.896;2023-03-25T01:37:03;99866.47;;;9.35;100.00
72959;BME280;60008;50.826;6.896;2023-03-25T01:39:48;99863.00;;;9.35;100.00
72959;BME280;60008;50.826;6.896;2023-03-25T01:42:33;99859.88;;;9.31;100.00
72959;BME280;60008;50.826;6.896;2023-03-25T01:45:21;99858.75;;;9.26;100.00
72959;BME280;60008;50.826;6.896;2023-03-25T01:51:12;99854.69;;;9.15;100.00
72959;BME280;60008;50.826;6.896;2023-03-25T01:53:59;99858.53;;;9.05;100.00
72959;BME280;60008;50.826;6.896;2023-03-25T01:56:46;99854.44;;;9.02;100.00
72959;BME280;60008;50.826;6.896;2023-03-25T01:59:32;99858.41;;;8.98;100.00
72959;BME280;60008;50.826;6.896;2023-03-25T02:02:17;99848.66;;;8.98;100.00
72959;BME280;60008;50.826;6.896;2023-03-25T02:05:06;99848.81;;;8.97;100.00
72959;BME280;60008;50.826;6.896;2023-03-25T02:07:55;99847.81;;;8.98;100.00
72959;BME280;60008;50.826;6.896;2023-03-25T02:10:44;99843.91;;;8.94;100.00
72959;BME280;60008;50.826;6.896;2023-03-25T02:13:31;99852.63;;;8.94;100.00
72959;BME280;60008;50.826;6.896;2023-03-25T02:16:22;99842.06;;;8.94;100.00
72959;BME280;60008;50.826;6.896;2023-03-25T02:19:40;99837.25;;;8.98;100.00
72959;BME280;60008;50.826;6.896;2023-03-25T02:25:36;99836.91;;;9.01;100.00
72959;BME280;60008;50.826;6.896;2023-03-25T02:31:45;99822.00;;;9.08;100.00
72959;BME280;60008;50.826;6.896;2023-03-25T02:35:01;99828.94;;;9.09;100.00
72959;BME280;60008;50.826;6.896;2023-03-25T02:38:12;99839.50;;;9.09;100.00
72959;BME280;60008;50.826;6.896;2023-03-25T02:41:19;99851.38;;;9.13;100.00
72959;BME280;60008;50.826;6.896;2023-03-25T02:44:21;99842.13;;;9.17;100.00
72959;BME280;60008;50.826;6.896;2023-03-25T02:47:13;99835.00;;;9.18;100.00
72959;BME280;60008;50.826;6.896;2023-03-25T02:50:04;99825.72;;;9.22;100.00
72959;BME280;60008;50.826;6.896;2023-03-25T02:52:55;99838.25;;;9.28;100.00
72959;BME280;60008;50.826;6.896;2023-03-25T02:55:42;99837.06;;;9.30;100.00
72959;BME280;60008;50.826;6.896;2023-03-25T02:58:32;99834.63;;;9.29;100.00
72959;BME280;60008;50.826;6.896;2023-03-25T03:01:17;99837.06;;;9.30;100.00
72959;BME280;60008;50.826;6.896;2023-03-25T03:04:03;99840.59;;;9.23;100.00
72959;BME280;60008;50.826;6.896;2023-03-25T03:06:48;99843.88;;;9.25;100.00
72959;BME280;60008;50.826;6.896;2023-03-25T03:09:45;99841.38;;;9.31;100.00
72959;BME280;60008;50.826;6.896;2023-03-25T03:12:40;99843.44;;;9.21;100.00
72959;BME280;60008;50.826;6.896;2023-03-25T03:15:38;99836.28;;;9.22;100.00
72959;BME280;60008;50.826;6.896;2023-03-25T03:18:49;99837.31;;;9.21;100.00
72959;BME280;60008;50.826;6.896;2023-03-25T03:21:50;99845.44;;;9.11;100.00
72959;BME280;60008;50.826;6.896;2023-03-25T03:24:40;99834.38;;;9.16;100.00
72959;BME280;60008;50.826;6.896;2023-03-25T03:27:31;99847.44;;;9.09;100.00
72959;BME280;60008;50.826;6.896;2023-03-25T03:30:28;99842.69;;;9.05;100.00
72959;BME280;60008;50.826;6.896;2023-03-25T03:33:36;99837.56;;;9.03;100.00
72959;BME280;60008;50.826;6.896;2023-03-25T03:36:28;99833.13;;;8.95;100.00
72959;BME280;60008;50.826;6.896;2023-03-25T03:39:22;99837.31;;;8.82;100.00
72959;BME280;60008;50.826;6.896;2023-03-25T03:45:30;99844.09;;;8.84;100.00
72959;BME280;60008;50.826;6.896;2023-03-25T03:48:32;99843.44;;;8.82;100.00
72959;BME280;60008;50.826;6.896;2023-03-25T03:51:29;99841.06;;;8.95;100.00
72959;BME280;60008;50.826;6.896;2023-03-25T03:54:24;99840.88;;;8.97;100.00
72959;BME280;60008;50.826;6.896;2023-03-25T03:57:18;99839.59;;;8.93;100.00
72959;BME280;60008;50.826;6.896;2023-03-25T04:00:15;99842.75;;;8.88;100.00
72959;BME280;60008;50.826;6.896;2023-03-25T04:03:13;99847.03;;;8.89;100.00
72959;BME280;60008;50.826;6.896;2023-03-25T04:06:07;99841.25;;;8.86;100.00
72959;BME280;60008;50.826;6.896;2023-03-25T04:11:58;99848.53;;;8.84;100.00
72959;BME280;60008;50.826;6.896;2023-03-25T04:14:45;99856.97;;;8.87;100.00
72959;BME280;60008;50.826;6.896;2023-03-25T04:17:30;99862.09;;;8.81;100.00
72959;BME280;60008;50.826;6.896;2023-03-25T04:20:22;99853.66;;;8.85;100.00
72959;BME280;60008;50.826;6.896;2023-03-25T04:23:11;99860.44;;;8.88;100.00
72959;BME280;60008;50.826;6.896;2023-03-25T04:26:00;99854.13;;;8.89;100.00
72959;BME280;60008;50.826;6.896;2023-03-25T04:28:46;99867.22;;;8.82;100.00
72959;BME280;60008;50.826;6.896;2023-03-25T04:31:31;99854.81;;;8.91;100.00
72959;BME280;60008;50.826;6.896;2023-03-25T04:34:17;99850.69;;;8.88;100.00
72959;BME280;60008;50.826;6.896;2023-03-25T04:37:04;99856.31;;;8.85;100.00
72959;BME280;60008;50.826;6.896;2023-03-25T04:39:49;99849.69;;;8.89;100.00
72959;BME280;60008;50.826;6.896;2023-03-25T04:42:34;99850.31;;;8.91;100.00
72959;BME280;60008;50.826;6.896;2023-03-25T04:45:21;99853.63;;;8.93;100.00
72959;BME280;60008;50.826;6.896;2023-03-25T04:48:13;99849.19;;;8.86;100.00
72959;BME280;60008;50.826;6.896;2023-03-25T04:51:04;99864.56;;;8.82;100.00
72959;BME280;60008;50.826;6.896;2023-03-25T04:53:49;99858.28;;;8.83;100.00
72959;BME280;60008;50.826;6.896;2023-03-25T04:56:34;99857.78;;;8.88;100.00
72959;BME280;60008;50.826;6.896;2023-03-25T04:59:20;99846.53;;;8.86;100.00
72959;BME280;60008;50.826;6.896;2023-03-25T05:02:07;99850.19;;;8.85;100.00
72959;BME280;60008;50.826;6.896;2023-03-25T05:04:57;99847.91;;;8.82;100.00
72959;BME280;60008;50.826;6.896;2023-03-25T05:07:47;99846.53;;;8.86;100.00
72959;BME280;60008;50.826;6.896;2023-03-25T05:10:33;99852.16;;;8.91;100.00
72959;BME280;60008;50.826;6.896;2023-03-25T05:13:19;99854.66;;;8.84;100.00
72959;BME280;60008;50.826;6.896;2023-03-25T05:16:05;99854.03;;;8.74;100.00
72959;BME280;60008;50.826;6.896;2023-03-25T05:18:50;99854.50;;;8.78;100.00
72959;BME280;60008;50.826;6.896;2023-03-25T05:21:37;99845.78;;;8.77;100.00
72959;BME280;60008;50.826;6.896;2023-03-25T05:24:22;99855.00;;;8.81;100.00
72959;BME280;60008;50.826;6.896;2023-03-25T05:27:07;99858.50;;;8.74;100.00
72959;BME280;60008;50.826;6.896;2023-03-25T05:29:52;99867.28;;;8.66;100.00
72959;BME280;60008;50.826;6.896;2023-03-25T05:32:37;99872.72;;;8.65;100.00
72959;BME280;60008;50.826;6.896;2023-03-25T05:35:25;99864.44;;;8.68;100.00
72959;BME280;60008;50.826;6.896;2023-03-25T05:38:11;99862.13;;;8.73;100.00
72959;BME280;60008;50.826;6.896;2023-03-25T05:40:57;99853.03;;;8.75;100.00
72959;BME280;60008;50.826;6.896;2023-03-25T05:43:44;99853.22;;;8.74;100.00
72959;BME280;60008;50.826;6.896;2023-03-25T05:46:34;99852.06;;;8.68;100.00
72959;BME280;60008;50.826;6.896;2023-03-25T05:49:19;99855.53;;;8.69;100.00
72959;BME280;60008;50.826;6.896;2023-03-25T05:52:05;99864.94;;;8.71;100.00
72959;BME280;60008;50.826;6.896;2023-03-25T05:54:52;99863.44;;;8.77;100.00
72959;BME280;60008;50.826;6.896;2023-03-25T05:57:37;99859.09;;;8.84;100.00
72959;BME280;60008;50.826;6.896;2023-03-25T06:00:22;99861.59;;;8.85;100.00
72959;BME280;60008;50.826;6.896;2023-03-25T06:03:08;99843.56;;;8.89;100.00
72959;BME280;60008;50.826;6.896;2023-03-25T06:05:54;99854.81;;;8.91;100.00
72959;BME280;60008;50.826;6.896;2023-03-25T06:08:40;99848.84;;;8.89;100.00
72959;BME280;60008;50.826;6.896;2023-03-25T06:11:25;99858.44;;;8.90;100.00
72959;BME280;60008;50.826;6.896;2023-03-25T06:14:10;99849.19;;;8.94;100.00
72959;BME280;60008;50.826;6.896;2023-03-25T06:16:54;99852.63;;;8.94;100.00
72959;BME280;60008;50.826;6.896;2023-03-25T06:19:40;99857.06;;;9.02;100.00
72959;BME280;60008;50.826;6.896;2023-03-25T06:22:25;99860.16;;;9.06;100.00
72959;BME280;60008;50.826;6.896;2023-03-25T06:25:14;99860.47;;;9.11;100.00
72959;BME280;60008;50.826;6.896;2023-03-25T06:28:01;99855.34;;;9.17;100.00
72959;BME280;60008;50.826;6.896;2023-03-25T06:30:47;99857.78;;;9.19;100.00
72959;BME280;60008;50.826;6.896;2023-03-25T06:33:33;99869.53;;;9.16;100.00
72959;BME280;60008;50.826;6.896;2023-03-25T06:36:27;99864.56;;;9.21;100.00
72959;BME280;60008;50.826;6.896;2023-03-25T06:39:12;99865.34;;;9.30;100.00
72959;BME280;60008;50.826;6.896;2023-03-25T06:41:58;99861.22;;;9.27;100.00
72959;BME280;60008;50.826;6.896;2023-03-25T06:44:44;99865.28;;;9.38;100.00
72959;BME280;60008;50.826;6.896;2023-03-25T06:47:29;99868.41;;;9.41;100.00
72959;BME280;60008;50.826;6.896;2023-03-25T06:50:14;99873.41;;;9.36;100.00
72959;BME280;60008;50.826;6.896;2023-03-25T06:52:59;99889.09;;;9.07;100.00
72959;BME280;60008;50.826;6.896;2023-03-25T06:55:44;99914.09;;;8.88;100.00
72959;BME280;60008;50.826;6.896;2023-03-25T06:58:29;99921.91;;;8.66;100.00
72959;BME280;60008;50.826;6.896;2023-03-25T07:01:18;99921.28;;;8.48;100.00
72959;BME280;60008;50.826;6.896;2023-03-25T07:04:04;99918.97;;;8.45;100.00
72959;BME280;60008;50.826;6.896;2023-03-25T07:06:49;99928.06;;;8.34;100.00
72959;BME280;60008;50.826;6.896;2023-03-25T07:09:34;99922.59;;;8.35;100.00
72959;BME280;60008;50.826;6.896;2023-03-25T07:12:19;99934.13;;;8.26;100.00
72959;BME280;60008;50.826;6.896;2023-03-25T07:15:05;99939.59;;;8.25;100.00
72959;BME280;60008;50.826;6.896;2023-03-25T07:17:51;99940.25;;;8.27;100.00
72959;BME280;60008;50.826;6.896;2023-03-25T07:20:36;99933.31;;;8.26;100.00
72959;BME280;60008;50.826;6.896;2023-03-25T07:23:21;99927.38;;;8.32;100.00
72959;BME280;60008;50.826;6.896;2023-03-25T07:26:06;99942.41;;;8.48;100.00
72959;BME280;60008;50.826;6.896;2023-03-25T07:28:51;99930.50;;;8.52;100.00
72959;BME280;60008;50.826;6.896;2023-03-25T07:31:36;99934.66;;;8.46;100.00
72959;BME280;60008;50.826;6.896;2023-03-25T07:34:23;99944.88;;;8.33;100.00
72959;BME280;60008;50.826;6.896;2023-03-25T07:37:08;99940.25;;;8.27;100.00
72959;BME280;60008;50.826;6.896;2023-03-25T07:39:54;99939.06;;;8.21;100.00
72959;BME280;60008;50.826;6.896;2023-03-25T07:42:39;99947.84;;;8.30;100.00
72959;BME280;60008;50.826;6.896;2023-03-25T07:45:24;99937.13;;;8.23;100.00
72959;BME280;60008;50.826;6.896;2023-03-25T07:48:09;99936.31;;;8.39;100.00
72959;BME280;60008;50.826;6.896;2023-03-25T07:50:58;99940.94;;;8.53;100.00
72959;BME280;60008;50.826;6.896;2023-03-25T07:53:43;99943.06;;;8.50;100.00
72959;BME280;60008;50.826;6.896;2023-03-25T07:56:29;99941.84;;;8.84;100.00
72959;BME280;60008;50.826;6.896;2023-03-25T07:59:14;99937.72;;;8.82;100.00
72959;BME280;60008;50.826;6.896;2023-03-25T08:01:59;99942.50;;;8.86;100.00
72959;BME280;60008;50.826;6.896;2023-03-25T08:04:44;99957.38;;;8.87;100.00
72959;BME280;60008;50.826;6.896;2023-03-25T08:07:31;99954.41;;;8.82;100.00
72959;BME280;60008;50.826;6.896;2023-03-25T08:10:16;99952.56;;;8.91;100.00
72959;BME280;60008;50.826;6.896;2023-03-25T08:13:01;99949.41;;;8.95;100.00
72959;BME280;60008;50.826;6.896;2023-03-25T08:15:46;99941.81;;;8.92;100.00
72959;BME280;60008;50.826;6.896;2023-03-25T08:18:31;99952.09;;;8.87;100.00
72959;BME280;60008;50.826;6.896;2023-03-25T08:21:15;99951.13;;;8.80;100.00
72959;BME280;60008;50.826;6.896;2023-03-25T08:24:00;99947.50;;;8.65;100.00
72959;BME280;60008;50.826;6.896;2023-03-25T08:26:48;99952.38;;;8.92;100.00
72959;BME280;60008;50.826;6.896;2023-03-25T08:29:33;99953.97;;;9.18;100.00
72959;BME280;60008;50.826;6.896;2023-03-25T08:32:19;99945.09;;;9.41;100.00
72959;BME280;60008;50.826;6.896;2023-03-25T08:35:05;99944.16;;;9.65;100.00
72959;BME280;60008;50.826;6.896;2023-03-25T08:37:50;99936.59;;;9.85;100.00
72959;BME280;60008;50.826;6.896;2023-03-25T08:40:35;99934.09;;;10.14;100.00
72959;BME280;60008;50.826;6.896;2023-03-25T08:43:20;99944.31;;;10.40;100.00
72959;BME280;60008;50.826;6.896;2023-03-25T08:46:06;99935.81;;;10.96;100.00
72959;BME280;60008;50.826;6.896;2023-03-25T08:48:51;99949.13;;;10.73;100.00
72959;BME280;60008;50.826;6.896;2023-03-25T08:51:37;99951.16;;;11.15;100.00
72959;BME280;60008;50.826;6.896;2023-03-25T08:54:23;99946.03;;;11.28;100.00
72959;BME280;60008;50.826;6.896;2023-03-25T08:57:08;99939.09;;;11.27;100.00
72959;BME280;60008;50.826;6.896;2023-03-25T08:59:53;99947.34;;;11.68;100.00
72959;BME280;60008;50.826;6.896;2023-03-25T09:02:38;99951.63;;;11.04;100.00
72959;BME280;60008;50.826;6.896;2023-03-25T09:05:24;99954.63;;;11.01;100.00
72959;BME280;60008;50.826;6.896;2023-03-25T09:08:09;99955.16;;;10.67;100.00
72959;BME280;60008;50.826;6.896;2023-03-25T09:10:54;99961.69;;;11.23;100.00
72959;BME280;60008;50.826;6.896;2023-03-25T09:13:40;99940.50;;;11.45;100.00
72959;BME280;60008;50.826;6.896;2023-03-25T09:16:24;99952.56;;;11.76;100.00
72959;BME280;60008;50.826;6.896;2023-03-25T09:19:10;99940.06;;;12.13;100.00
72959;BME280;60008;50.826;6.896;2023-03-25T09:21:54;99940.69;;;12.91;100.00
72959;BME280;60008;50.826;6.896;2023-03-25T09:24:40;99948.47;;;11.95;100.00
72959;BME280;60008;50.826;6.896;2023-03-25T09:27:25;99948.59;;;13.47;100.00
72959;BME280;60008;50.826;6.896;2023-03-25T09:30:10;99947.47;;;11.96;100.00
72959;BME280;60008;50.826;6.896;2023-03-25T09:32:56;99965.69;;;11.34;100.00
72959;BME280;60008;50.826;6.896;2023-03-25T09:35:40;99949.03;;;11.55;100.00
72959;BME280;60008;50.826;6.896;2023-03-25T09:38:25;99946.38;;;11.90;100.00
72959;BME280;60008;50.826;6.896;2023-03-25T09:44:18;99946.38;;;13.16;100.00
72959;BME280;60008;50.826;6.896;2023-03-25T09:47:07;99944.91;;;12.51;100.00
72959;BME280;60008;50.826;6.896;2023-03-25T09:50:02;99954.91;;;13.39;100.00
72959;BME280;60008;50.826;6.896;2023-03-25T09:55:40;99943.09;;;11.88;100.00
72959;BME280;60008;50.826;6.896;2023-03-25T09:58:37;99937.69;;;13.96;100.00
72959;BME280;60008;50.826;6.896;2023-03-25T10:01:36;99953.16;;;14.59;98.56
72959;BME280;60008;50.826;6.896;2023-03-25T10:08:01;99954.59;;;13.15;100.00
72959;BME280;60008;50.826;6.896;2023-03-25T10:23:18;99967.53;;;12.20;100.00
72959;BME280;60008;50.826;6.896;2023-03-25T10:26:13;99966.78;;;12.53;100.00
72959;BME280;60008;50.826;6.896;2023-03-25T10:29:06;99964.34;;;13.96;100.00
72959;BME280;60008;50.826;6.896;2023-03-25T10:31:58;99959.72;;;14.50;100.00
72959;BME280;60008;50.826;6.896;2023-03-25T10:34:49;99976.38;;;13.31;100.00
72959;BME280;60008;50.826;6.896;2023-03-25T10:37:35;99970.16;;;14.91;100.00
72959;BME280;60008;50.826;6.896;2023-03-25T10:40:29;99983.03;;;13.14;100.00
72959;BME280;60008;50.826;6.896;2023-03-25T10:43:37;99969.13;;;12.42;100.00
72959;BME280;60008;50.826;6.896;2023-03-25T10:46:39;99963.34;;;12.11;100.00
72959;BME280;60008;50.826;6.896;2023-03-25T10:49:33;99980.50;;;11.72;100.00
72959;BME280;60008;50.826;6.896;2023-03-25T10:52:19;99967.50;;;12.41;100.00
72959;BME280;60008;50.826;6.896;2023-03-25T10:55:07;99959.94;;;11.96;100.00
72959;BME280;60008;50.826;6.896;2023-03-25T10:58:01;99992.09;;;12.07;100.00
72959;BME280;60008;50.826;6.896;2023-03-25T11:00:47;99971.78;;;11.78;100.00
72959;BME280;60008;50.826;6.896;2023-03-25T11:03:33;99988.59;;;11.85;100.00
72959;BME280;60008;50.826;6.896;2023-03-25T11:06:30;99982.97;;;11.59;100.00
72959;BME280;60008;50.826;6.896;2023-03-25T11:12:07;99976.97;;;11.86;100.00
72959;BME280;60008;50.826;6.896;2023-03-25T11:14:55;99996.66;;;12.77;100.00
72959;BME280;60008;50.826;6.896;2023-03-25T11:17:41;99987.69;;;12.84;100.00
72959;BME280;60008;50.826;6.896;2023-03-25T11:20:30;99967.91;;;14.49;99.68
72959;BME280;60008;50.826;6.896;2023-03-25T11:23:36;99965.75;;;13.92;100.00
72959;BME280;60008;50.826;6.896;2023-03-25T11:26:27;99968.97;;;13.81;100.00
72959;BME280;60008;50.826;6.896;2023-03-25T11:29:19;99976.16;;;12.98;100.00
72959;BME280;60008;50.826;6.896;2023-03-25T11:32:14;99975.00;;;13.07;100.00
72959;BME280;60008;50.826;6.896;2023-03-25T11:35:00;99971.22;;;12.68;100.00
72959;BME280;60008;50.826;6.896;2023-03-25T11:37:54;99981.28;;;12.51;100.00
72959;BME280;60008;50.826;6.896;2023-03-25T11:40:53;99982.81;;;12.18;100.00
72959;BME280;60008;50.826;6.896;2023-03-25T11:43:39;99979.81;;;12.70;100.00
72959;BME280;60008;50.826;6.896;2023-03-25T11:46:24;99965.34;;;13.88;100.00
72959;BME280;60008;50.826;6.896;2023-03-25T11:49:15;99981.19;;;15.21;91.06
72959;BME280;60008;50.826;6.896;2023-03-25T11:52:06;99962.72;;;14.14;100.00
72959;BME280;60008;50.826;6.896;2023-03-25T11:54:52;99967.28;;;14.34;100.00
72959;BME280;60008;50.826;6.896;2023-03-25T11:57:38;99967.75;;;13.77;100.00
72959;BME280;60008;50.826;6.896;2023-03-25T12:08:57;99973.41;;;13.54;100.00
72959;BME280;60008;50.826;6.896;2023-03-25T12:15:34;99966.00;;;13.08;100.00
72959;BME280;60008;50.826;6.896;2023-03-25T12:18:44;99967.84;;;13.42;100.00
72959;BME280;60008;50.826;6.896;2023-03-25T12:22:04;99971.22;;;13.23;99.50
72959;BME280;60008;50.826;6.896;2023-03-25T12:28:03;99958.63;;;13.10;99.63
72959;BME280;60008;50.826;6.896;2023-03-25T12:31:34;99951.75;;;13.23;96.10
72959;BME280;60008;50.826;6.896;2023-03-25T12:34:33;99964.03;;;13.24;96.44
72959;BME280;60008;50.826;6.896;2023-03-25T12:37:40;99956.31;;;13.35;95.93
72959;BME280;60008;50.826;6.896;2023-03-25T12:43:40;99957.94;;;13.30;92.59
72959;BME280;60008;50.826;6.896;2023-03-25T12:46:48;99937.88;;;13.94;96.61
72959;BME280;60008;50.826;6.896;2023-03-25T12:52:42;99914.44;;;13.57;92.53
72959;BME280;60008;50.826;6.896;2023-03-25T12:55:51;99921.09;;;13.33;92.36
72959;BME280;60008;50.826;6.896;2023-03-25T12:59:03;99918.44;;;13.33;96.11
72959;BME280;60008;50.826;6.896;2023-03-25T13:02:28;99925.50;;;13.60;93.40
72959;BME280;60008;50.826;6.896;2023-03-25T13:05:26;99916.09;;;13.64;92.86
72959;BME280;60008;50.826;6.896;2023-03-25T13:08:21;99900.09;;;13.10;95.81
72959;BME280;60008;50.826;6.896;2023-03-25T13:11:19;99908.63;;;13.34;92.45
72959;BME280;60008;50.826;6.896;2023-03-25T13:14:16;99894.63;;;13.79;91.54
72959;BME280;60008;50.826;6.896;2023-03-25T13:17:09;99898.53;;;13.90;84.65
72959;BME280;60008;50.826;6.896;2023-03-25T13:19:59;99905.34;;;14.25;86.79
72959;BME280;60008;50.826;6.896;2023-03-25T13:22:49;99893.00;;;13.98;78.29
72959;BME280;60008;50.826;6.896;2023-03-25T13:25:56;99880.09;;;13.75;79.08
72959;BME280;60008;50.826;6.896;2023-03-25T13:31:36;99899.28;;;13.57;83.42
72959;BME280;60008;50.826;6.896;2023-03-25T13:34:41;99885.16;;;13.63;82.61
72959;BME280;60008;50.826;6.896;2023-03-25T13:37:34;99883.66;;;13.41;84.02
72959;BME280;60008;50.826;6.896;2023-03-25T13:40:42;99881.75;;;13.22;85.22
72959;BME280;60008;50.826;6.896;2023-03-25T13:43:34;99889.13;;;13.27;85.46
72959;BME280;60008;50.826;6.896;2023-03-25T13:46:48;99902.84;;;12.89;91.04
72959;BME280;60008;50.826;6.896;2023-03-25T13:49:40;99920.53;;;12.48;99.44
72959;BME280;60008;50.826;6.896;2023-03-25T13:52:32;99935.00;;;12.18;100.00
72959;BME280;60008;50.826;6.896;2023-03-25T13:55:28;99958.25;;;11.73;100.00
72959;BME280;60008;50.826;6.896;2023-03-25T13:58:29;99975.31;;;11.35;100.00
72959;BME280;60008;50.826;6.896;2023-03-25T14:04:36;100017.66;;;10.39;100.00
72959;BME280;60008;50.826;6.896;2023-03-25T14:10:46;100110.44;;;9.21;100.00
72959;BME280;60008;50.826;6.896;2023-03-25T14:13:38;100053.44;;;9.03;100.00
72959;BME280;60008;50.826;6.896;2023-03-25T14:16:27;100033.88;;;9.36;100.00
72959;BME280;60008;50.826;6.896;2023-03-25T14:19:30;100024.72;;;9.54;100.00
72959;BME280;60008;50.826;6.896;2023-03-25T14:22:19;100017.16;;;9.82;100.00
72959;BME280;60008;50.826;6.896;2023-03-25T14:25:05;100030.66;;;9.95;100.00
72959;BME280;60008;50.826;6.896;2023-03-25T14:27:50;100039.66;;;10.17;100.00
72959;BME280;60008;50.826;6.896;2023-03-25T14:30:35;100039.31;;;10.12;100.00
72959;BME280;60008;50.826;6.896;2023-03-25T14:33:21;100008.22;;;10.59;100.00
72959;BME280;60008;50.826;6.896;2023-03-25T14:36:07;99985.22;;;10.74;100.00
72959;BME280;60008;50.826;6.896;2023-03-25T14:38:53;99993.13;;;10.97;100.00
72959;BME280;60008;50.826;6.896;2023-03-25T14:44:51;99999.44;;;10.96;100.00
72959;BME280;60008;50.826;6.896;2023-03-25T14:47:51;99983.06;;;11.07;100.00
72959;BME280;60008;50.826;6.896;2023-03-25T14:50:37;99992.94;;;11.43;100.00
72959;BME280;60008;50.826;6.896;2023-03-25T14:53:25;99980.19;;;11.67;100.00
72959;BME280;60008;50.826;6.896;2023-03-25T14:56:18;99976.59;;;11.24;100.00
72959;BME280;60008;50.826;6.896;2023-03-25T14:59:08;99981.50;;;11.42;100.00
72959;BME280;60008;50.826;6.896;2023-03-25T15:02:04;99971.81;;;11.49;100.00
72959;BME280;60008;50.826;6.896;2023-03-25T15:04:55;99971.72;;;11.57;100.00
72959;BME280;60008;50.826;6.896;2023-03-25T15:11:00;99970.44;;;11.53;100.00
72959;BME280;60008;50.826;6.896;2023-03-25T15:13:48;99981.78;;;11.47;100.00
72959;BME280;60008;50.826;6.896;2023-03-25T15:25:59;99963.19;;;12.40;100.00
72959;BME280;60008;50.826;6.896;2023-03-25T15:44:09;99961.75;;;12.37;100.00
72959;BME280;60008;50.826;6.896;2023-03-25T15:53:50;99929.19;;;12.57;100.00
72959;BME280;60008;50.826;6.896;2023-03-25T15:56:41;99940.91;;;12.62;100.00
72959;BME280;60008;50.826;6.896;2023-03-25T15:59:41;99939.75;;;12.71;100.00
72959;BME280;60008;50.826;6.896;2023-03-25T16:02:41;99946.44;;;12.39;100.00
72959;BME280;60008;50.826;6.896;2023-03-25T16:05:29;99950.44;;;12.50;100.00
72959;BME280;60008;50.826;6.896;2023-03-25T16:08:18;99962.41;;;12.67;100.00
72959;BME280;60008;50.826;6.896;2023-03-25T16:11:25;99951.25;;;12.78;100.00
72959;BME280;60008;50.826;6.896;2023-03-25T16:14:16;99951.38;;;12.70;100.00
72959;BME280;60008;50.826;6.896;2023-03-25T16:17:04;99957.44;;;12.58;100.00
72959;BME280;60008;50.826;6.896;2023-03-25T16:19:54;99960.94;;;12.58;100.00
72959;BME280;60008;50.826;6.896;2023-03-25T16:22:40;99967.97;;;13.00;100.00
72959;BME280;60008;50.826;6.896;2023-03-25T16:25:35;99953.03;;;12.99;100.00
72959;BME280;60008;50.826;6.896;2023-03-25T16:28:29;99948.19;;;12.81;100.00
72959;BME280;60008;50.826;6.896;2023-03-25T16:31:30;99955.03;;;12.63;100.00
72959;BME280;60008;50.826;6.896;2023-03-25T16:34:19;99949.91;;;12.40;100.00
72959;BME280;60008;50.826;6.896;2023-03-25T16:37:05;99949.88;;;12.33;100.00
72959;BME280;60008;50.826;6.896;2023-03-25T16:39:52;99962.50;;;12.31;100.00
72959;BME280;60008;50.826;6.896;2023-03-25T16:42:37;99963.16;;;12.33;100.00
72959;BME280;60008;50.826;6.896;2023-03-25T16:45:23;99947.59;;;12.30;100.00